New Bedford, MA (02740)

4:05 PM EST on February 06, 2016 (GMT -0500)
Peedee's Weather | | Change Station
CLOSE
Current Station
Personal Weather Station
Location: New Bedford, MA
Elevation: 130 ft
Nearby Weather Stations

Elev 130 ft 41.65 °N, 70.94 °W | Updated 8 minutes ago

Clear
Clear
35.4 °F
Feels Like 33 °F
N
3.2
Wind Variable Wind from WNW

Today
High -- | Low -- °F
--% Chance of Precip.
Yesterday
High -- | Low -- °F
Precip. -- in
Pressure 30.30 in
Visibility 10.0 miles
Clouds Clear
Windchill 33 °F
Dew Point 30 °F
Humidity 81%
Rainfall 0.09 in
Snow Depth Not available.
6:50 AM 5:05 PM
Waning Crescent, 4% visible
METAR KEWB 062053Z AUTO 22009KT 10SM CLR 01/M03 A3030 RMK AO2 SLP261 T00111028 56012 $
Pressure 30.30 in
Visibility 10.0 miles
Clouds Clear
Windchill 33 °F
Dew Point 30 °F
Humidity 81%
Rainfall 0.09 in
Snow Depth Not available.
6:50 AM 5:05 PM
Waning Crescent, 4% visible
METAR KEWB 062053Z AUTO 22009KT 10SM CLR 01/M03 A3030 RMK AO2 SLP261 T00111028 56012 $

10-Day Weather Forecast

Almanac

Astronomy

Feb. 06, 2016 Rise Set
Actual Time
Civil Twilight
Nautical Twilight
Astronomical Twilight
Moon
Length of Visible Light
Length of Day
Tomorrow will be .
, % of the Moon is Illuminated

Today's Extremes

State Highs State Lows

Community

WunderPhotos

Upload Photos

1,891,050 photos uploaded!

WunderBlog® & News

Nearby

Air Quality

  Air Quality AQ Index Pollutant
Not available.

Snow Depth

Station Depth Elevation

Earthquake Activity

City Distance Mag. Time & Date
Minimum magnitude displayed is 2.5.

Coastal Water Temperatures

Place Temperature

Stations

Nearby Weather Stations

Station Location Temp. Windchill Dew Point Humidity Wind Precip. Elev Updated Type
                   

Watches & Warnings

There are currently no watches in effect.